Brandy Bar — WDF7323 — position and weather

sailwx.info

Track history (hours):
 
Tides and Currents Weather Stations Pressure Air Temp Water Temp Dewpoint Dewpoint Depression Visibility Wind Speed Wind Dir Waves Ship Positions

Brandy Bar

Owner: Brandy Bar, Tiburon, CA. More information available from US FCC via Universal Licensing System and Coast Guard Vessel Documentation Center.

Last reported at 2017-Aug-16 23:16 UTC. Time now 2017-Aug-17 13:47 UTC.
Position N 37°36' W 122°19'.

Type: Towing. MMSI: 367483310.

Date/timePositionNaut miles runAvg speedWind from/ knotsBaromVisibWave heightAir tempDewpointWater temp
2017-Aug-16 23:16N 37°36' W 122°19'0 0.1
2017-Aug-16 23:00N 37°36' W 122°19'1 2.5
2017-Aug-16 22:30N 37°37' W 122°18'3 6.8
2017-Aug-16 22:00N 37°40' W 122°20'3 6.9
2017-Aug-16 21:30N 37°43' W 122°21'4 7.0
2017-Aug-16 21:00N 37°47' W 122°22'3 5.8
2017-Aug-16 20:30N 37°49' W 122°24'1 2.0
2017-Aug-16 20:00N 37°49' W 122°26'3 5.2
2017-Aug-16 19:30N 37°48' W 122°23'3 6.5
2017-Aug-16 19:00N 37°45' W 122°22'3 6.3
2017-Aug-16 18:30N 37°42' W 122°21'3 6.0
2017-Aug-16 18:00N 37°39' W 122°19'3 5.2
2017-Aug-16 17:30N 37°36' W 122°18'1 1.9
2017-Aug-16 17:00N 37°36' W 122°19'0 0.1
2017-Aug-16 16:30N 37°36' W 122°19'0 0.0
2017-Aug-16 16:00N 37°36' W 122°19'0 0.0
2017-Aug-16 11:13N 37°35' W 122°19'0 0.7
2017-Aug-16 11:00N 37°36' W 122°19'0 0.0
2017-Aug-16 10:30N 37°36' W 122°19'2 4.3
2017-Aug-16 10:00N 37°38' W 122°19'3 5.7
2017-Aug-16 09:30N 37°40' W 122°20'3 5.9
2017-Aug-16 09:00N 37°43' W 122°21'3 5.9
2017-Aug-16 08:30N 37°46' W 122°22'3 5.3
2017-Aug-16 08:00N 37°48' W 122°24'1 2.0
2017-Aug-16 07:30N 37°49' W 122°25'3 6.7
2017-Aug-16 07:01N 37°46' W 122°22'3 6.6
2017-Aug-16 06:30N 37°43' W 122°21'3 6.6
2017-Aug-16 06:00N 37°40' W 122°20'3 6.4
2017-Aug-16 05:30N 37°37' W 122°18'2 3.3
2017-Aug-16 05:00N 37°36' W 122°19'0 0.0
2017-Aug-16 04:30N 37°36' W 122°19'0 0.0
2017-Aug-16 04:00N 37°36' W 122°19'0 0.0
2017-Aug-16 03:30N 37°36' W 122°19'0 0.1
2017-Aug-16 03:00N 37°36' W 122°19'0 0.0
2017-Aug-15 21:05N 37°35' W 122°19'0 0.1
2017-Aug-15 21:00N 37°35' W 122°19'0 0.5
2017-Aug-15 20:30N 37°36' W 122°19'2 4.1
2017-Aug-15 20:00N 37°38' W 122°18'3 6.0
2017-Aug-15 19:30N 37°40' W 122°20'3 5.7
2017-Aug-15 19:00N 37°43' W 122°21'3 5.8
2017-Aug-15 18:30N 37°46' W 122°22'3 5.4
2017-Aug-15 18:00N 37°48' W 122°24'2 3.6
2017-Aug-15 17:30N 37°49' W 122°25'1 1.9
2017-Aug-15 17:00N 37°49' W 122°24'3 6.4
2017-Aug-15 16:30N 37°46' W 122°22'3 6.3
2017-Aug-15 16:00N 37°43' W 122°21'3 5.6
2017-Aug-15 15:30N 37°40' W 122°20'3 5.3
2017-Aug-15 15:00N 37°38' W 122°19'2 4.2
2017-Aug-15 14:30N 37°36' W 122°18'1 1.3
2017-Aug-15 14:00N 37°35' W 122°19'0 0.0
2017-Aug-15 08:08N 37°35' W 122°19'0 0.0
2017-Aug-15 08:00N 37°35' W 122°19'2 3.0
2017-Aug-15 07:30N 37°37' W 122°19'2 4.8
2017-Aug-15 07:00N 37°39' W 122°20'2 5.0
2017-Aug-15 06:30N 37°42' W 122°21'3 5.1
2017-Aug-15 06:00N 37°44' W 122°21'2 4.8
2017-Aug-15 05:30N 37°46' W 122°22'2 4.5
2017-Aug-15 05:00N 37°48' W 122°24'1 2.7
2017-Aug-15 04:30N 37°49' W 122°25'3 6.5
2017-Aug-15 04:00N 37°47' W 122°22'4 7.1
2017-Aug-15 03:30N 37°43' W 122°21'3 6.4
2017-Aug-15 03:00N 37°40' W 122°20'3 5.8
2017-Aug-15 02:30N 37°38' W 122°19'2 0.4
2017-Aug-14 21:09N 37°35' W 122°19'0 0.4
2017-Aug-14 21:01N 37°36' W 122°19'2 4.7
2017-Aug-14 20:30N 37°38' W 122°19'3 7.0
2017-Aug-14 20:01N 37°41' W 122°20'4 7.2
2017-Aug-14 19:30N 37°45' W 122°21'4 7.1
2017-Aug-14 19:00N 37°48' W 122°23'2 4.6
2017-Aug-14 18:30N 37°49' W 122°25'2 4.4
2017-Aug-14 18:00N 37°48' W 122°23'3 6.0
2017-Aug-14 17:30N 37°45' W 122°22'3 6.1
2017-Aug-14 17:00N 37°42' W 122°21'3 6.1
2017-Aug-14 16:30N 37°39' W 122°20'3 6.0
2017-Aug-14 16:00N 37°37' W 122°18'1 0.0
2017-Aug-12 22:33N 37°35' W 122°19'0 0.1
2017-Aug-12 22:30N 37°35' W 122°19'0 0.3
2017-Aug-12 22:00N 37°35' W 122°19'2 4.1
2017-Aug-12 21:30N 37°37' W 122°18'4 7.4
2017-Aug-12 21:00N 37°41' W 122°20'4 7.9
2017-Aug-12 20:30N 37°45' W 122°21'4 8.2
2017-Aug-12 20:00N 37°48' W 122°24'2 3.5
2017-Aug-12 19:30N 37°49' W 122°25'1 2.8
2017-Aug-12 19:00N 37°49' W 122°24'2 3.9
2017-Aug-12 18:30N 37°47' W 122°23'2 4.2
2017-Aug-12 18:00N 37°45' W 122°22'2 4.8
2017-Aug-12 17:30N 37°43' W 122°21'3 5.4
2017-Aug-12 17:00N 37°40' W 122°20'3 6.1
2017-Aug-12 16:30N 37°37' W 122°18'2 3.3
2017-Aug-12 16:00N 37°36' W 122°19'0 0.5
2017-Aug-12 15:31N 37°35' W 122°19'0 0.1
2017-Aug-12 15:00N 37°35' W 122°19'0 0.0
2017-Aug-12 00:10N 37°35' W 122°19'0 0.0
2017-Aug-12 00:01N 37°35' W 122°19'0 0.4
2017-Aug-11 23:31N 37°36' W 122°19'3 5.3
2017-Aug-11 23:00N 37°38' W 122°19'3 6.4
2017-Aug-11 22:30N 37°41' W 122°20'4 7.0
2017-Aug-11 22:00N 37°45' W 122°21'4 7.5
2017-Aug-11 21:30N 37°48' W 122°23'2 3.5
2017-Aug-11 21:01N 37°49' W 122°25'2 4.3
2017-Aug-11 20:30N 37°48' W 122°23'2 3.8
2017-Aug-11 20:00N 37°46' W 122°22'2 4.0
2017-Aug-11 19:31N 37°44' W 122°22'2 3.9
2017-Aug-11 19:00N 37°42' W 122°21'2 4.1
2017-Aug-11 18:30N 37°40' W 122°20'2 4.4
2017-Aug-11 18:01N 37°38' W 122°19'2 3.8
2017-Aug-11 17:31N 37°36' W 122°19'1 1.1
2017-Aug-11 17:01N 37°36' W 122°19'0 0.6
2017-Aug-11 16:31N 37°35' W 122°19'0 0.1
2017-Aug-11 15:58N 37°35' W 122°19'0 0.0
2017-Aug-11 15:30N 37°35' W 122°19'0 0.1
2017-Aug-11 15:00N 37°35' W 122°19'0 0.2
2017-Aug-11 14:31N 37°35' W 122°19'0 0.0
2017-Aug-11 06:00N 37°35' W 122°19'0 0.2
2017-Aug-11 05:31N 37°35' W 122°19'3 5.5
2017-Aug-11 05:01N 37°38' W 122°20'3 6.5
2017-Aug-11 04:31N 37°41' W 122°21'3 6.3
2017-Aug-11 04:00N 37°44' W 122°22'3 6.2
2017-Aug-11 03:30N 37°47' W 122°23'3 5.6
2017-Aug-11 03:00N 37°49' W 122°25'2 4.8
2017-Aug-11 02:30N 37°48' W 122°23'3 6.8
2017-Aug-11 02:01N 37°45' W 122°21'3 6.5
2017-Aug-11 01:30N 37°42' W 122°20'3 5.9
2017-Aug-11 01:00N 37°39' W 122°19'3 5.1
2017-Aug-11 00:30N 37°36' W 122°19'1 0.2
2017-Aug-10 20:27N 37°35' W 122°19'0 0.2
2017-Aug-10 20:01N 37°35' W 122°19'0 0.1
2017-Aug-10 19:31N 37°35' W 122°19'0 0.0
2017-Aug-10 14:21N 37°35' W 122°19'0 0.0
2017-Aug-10 14:00N 37°35' W 122°19'0 0.2
2017-Aug-10 13:30N 37°35' W 122°19'0 0.0
2017-Aug-10 12:14N 37°35' W 122°19'0 0.2
2017-Aug-10 12:00N 37°35' W 122°19'2 3.1
2017-Aug-10 11:31N 37°37' W 122°19'3 5.6
2017-Aug-10 11:00N 37°40' W 122°20'3 5.6
2017-Aug-10 10:30N 37°42' W 122°21'3 5.7
2017-Aug-10 10:01N 37°45' W 122°22'3 6.1
2017-Aug-10 09:30N 37°48' W 122°23'2 4.1
2017-Aug-10 09:00N 37°49' W 122°25'3 5.3
2017-Aug-10 08:31N 37°47' W 122°23'2 4.6
2017-Aug-10 08:00N 37°45' W 122°22'2 4.6
2017-Aug-10 07:31N 37°43' W 122°21'2 4.5
2017-Aug-10 07:00N 37°41' W 122°20'2 4.0
2017-Aug-10 06:30N 37°39' W 122°19'2 4.3
2017-Aug-10 06:01N 37°37' W 122°18'2 3.6
2017-Aug-10 05:30N 37°35' W 122°19'0 0.0
2017-Aug-10 05:01N 37°35' W 122°19'0 0.0
2017-Aug-10 04:31N 37°35' W 122°19'0 0.0
2017-Aug-10 04:00N 37°35' W 122°19'0 0.0
2017-Aug-10 03:30N 37°35' W 122°19'0 0.0
2017-Aug-10 03:00N 37°35' W 122°19'0 0.0
2017-Aug-10 02:30N 37°35' W 122°19'0 0.1
2017-Aug-10 02:00N 37°35' W 122°19'0 0.1
2017-Aug-10 01:30N 37°35' W 122°19'0 0.6
2017-Aug-10 01:00N 37°36' W 122°19'2 4.9
2017-Aug-10 00:30N 37°38' W 122°19'3 5.2
2017-Aug-10 00:00N 37°41' W 122°20'3 5.2
2017-Aug-09 23:30N 37°43' W 122°21'3 5.1
2017-Aug-09 23:00N 37°45' W 122°22'2 5.0
2017-Aug-09 22:30N 37°48' W 122°23'2 4.6
2017-Aug-09 22:00N 37°49' W 122°25'1 2.1
2017-Aug-09 21:30N 37°49' W 122°24'3 5.2
2017-Aug-09 21:00N 37°47' W 122°23'2 4.8
2017-Aug-09 20:30N 37°44' W 122°22'2 4.4
2017-Aug-09 20:00N 37°42' W 122°21'2 3.9
2017-Aug-09 19:30N 37°40' W 122°20'2 4.1
2017-Aug-09 19:00N 37°38' W 122°19'2 3.6
2017-Aug-09 18:30N 37°37' W 122°18'1 0.1
2017-Aug-09 08:07N 37°35' W 122°19'0 0.2
2017-Aug-09 08:01N 37°35' W 122°19'2 4.9
2017-Aug-09 07:30N 37°38' W 122°19'3 6.8
2017-Aug-09 07:01N 37°41' W 122°20'4 7.2
2017-Aug-09 06:31N 37°45' W 122°22'4 7.9
2017-Aug-09 06:00N 37°48' W 122°24'1 2.7
2017-Aug-09 05:30N 37°49' W 122°25'2 3.3
2017-Aug-09 05:00N 37°48' W 122°23'2 3.8
2017-Aug-09 04:30N 37°46' W 122°22'2 4.1
2017-Aug-09 04:00N 37°44' W 122°21'2 4.5
2017-Aug-09 03:31N 37°42' W 122°21'2 4.9
2017-Aug-09 03:01N 37°40' W 122°20'3 5.3
2017-Aug-09 02:31N 37°37' W 122°19'2 0.2
2017-Aug-08 18:01N 37°35' W 122°19'0 0.0
2017-Aug-08 18:01N 37°35' W 122°19'0 0.2
2017-Aug-08 17:31N 37°35' W 122°19'0 0.1
2017-Aug-08 17:01N 37°35' W 122°19'0 0.0
2017-Aug-08 16:30N 37°35' W 122°19'0 0.0
2017-Aug-08 16:00N 37°35' W 122°19'0 0.0
2017-Aug-08 15:30N 37°35' W 122°19'0 0.0
2017-Aug-08 15:01N 37°35' W 122°19'0 0.0
2017-Aug-08 14:31N 37°35' W 122°19'0 0.0
2017-Aug-08 14:01N 37°35' W 122°19'1 2.0
2017-Aug-08 13:30N 37°37' W 122°19'2 4.7
2017-Aug-08 13:01N 37°39' W 122°20'2 4.9
2017-Aug-08 12:31N 37°41' W 122°21'2 4.7
2017-Aug-08 12:00N 37°43' W 122°21'2 4.5
2017-Aug-08 11:30N 37°46' W 122°22'2 4.2
2017-Aug-08 11:01N 37°47' W 122°23'2 4.0
2017-Aug-08 10:30N 37°49' W 122°25'0 0.5
2017-Aug-08 10:00N 37°49' W 122°25'4 7.6
2017-Aug-08 09:30N 37°46' W 122°22'3 6.7
2017-Aug-08 09:01N 37°43' W 122°21'3 5.8
2017-Aug-08 08:31N 37°40' W 122°20'3 5.2
2017-Aug-08 08:01N 37°38' W 122°19'2 4.2
2017-Aug-08 07:31N 37°36' W 122°19'0 0.6
2017-Aug-08 07:01N 37°35' W 122°19'0 0.0
2017-Aug-08 03:28N 37°35' W 122°19'0 0.0
2017-Aug-08 03:01N 37°35' W 122°19'0 0.0
2017-Aug-08 02:30N 37°35' W 122°19'0 0.0
2017-Aug-08 01:03N 37°35' W 122°19'0 0.0
2017-Aug-08 00:54N 37°35' W 122°19'0 0.0
2017-Aug-08 00:30N 37°35' W 122°19'0 0.0
2017-Aug-08 00:00N 37°35' W 122°19'0 0.0
2017-Aug-07 23:30N 37°35' W 122°19'0 0.0
2017-Aug-07 23:00N 37°35' W 122°19'0 0.0
2017-Aug-07 22:30N 37°35' W 122°19'0 0.0
2017-Aug-07 22:00N 37°35' W 122°19'0 0.3
2017-Aug-07 21:31N 37°35' W 122°19'1 1.3
2017-Aug-07 21:01N 37°36' W 122°18'3 6.4
2017-Aug-07 20:30N 37°39' W 122°19'3 6.9
2017-Aug-07 20:00N 37°42' W 122°21'4 7.5
2017-Aug-07 19:30N 37°46' W 122°22'4 7.3
2017-Aug-07 19:00N 37°49' W 122°25'0 0.5
2017-Aug-07 18:30N 37°49' W 122°25'2 3.8
2017-Aug-07 18:01N 37°48' W 122°23'2 3.4
2017-Aug-07 17:30N 37°46' W 122°22'2 3.8
2017-Aug-07 17:00N 37°44' W 122°22'2 3.9
2017-Aug-07 16:30N 37°43' W 122°21'2 3.9
2017-Aug-07 16:00N 37°41' W 122°20'2 4.3
2017-Aug-07 15:30N 37°39' W 122°19'2 4.6
2017-Aug-07 15:00N 37°37' W 122°18'1 2.5
2017-Aug-07 14:30N 37°36' W 122°19'0 0.3
2017-Aug-07 14:00N 37°35' W 122°19'0 0.0
2017-Aug-07 13:30N 37°35' W 122°19'  
Track history (hours):
 
Tides and Currents Weather Stations Pressure Air Temp Water Temp Dewpoint Dewpoint Depression Visibility Wind Speed Wind Dir Waves Ship Positions

Brandy Bar

Owner: Brandy Bar, Tiburon, CA. More information available from US FCC via Universal Licensing System and Coast Guard Vessel Documentation Center.

Last reported at 2017-Aug-16 23:16 UTC. Time now 2017-Aug-17 13:47 UTC.
Position N 37°36' W 122°19'.

Type: Towing. MMSI: 367483310.

Date/timePositionNaut miles runAvg speedWind from/ knotsBaromVisibWave heightAir tempDewpointWater temp
2017-Aug-16 23:16N 37°36' W 122°19'0 0.1
2017-Aug-16 23:00N 37°36' W 122°19'1 2.5
2017-Aug-16 22:30N 37°37' W 122°18'3 6.8
2017-Aug-16 22:00N 37°40' W 122°20'3 6.9
2017-Aug-16 21:30N 37°43' W 122°21'4 7.0
2017-Aug-16 21:00N 37°47' W 122°22'3 5.8
2017-Aug-16 20:30N 37°49' W 122°24'1 2.0
2017-Aug-16 20:00N 37°49' W 122°26'3 5.2
2017-Aug-16 19:30N 37°48' W 122°23'3 6.5
2017-Aug-16 19:00N 37°45' W 122°22'3 6.3
2017-Aug-16 18:30N 37°42' W 122°21'3 6.0
2017-Aug-16 18:00N 37°39' W 122°19'3 5.2
2017-Aug-16 17:30N 37°36' W 122°18'1 1.9
2017-Aug-16 17:00N 37°36' W 122°19'0 0.1
2017-Aug-16 16:30N 37°36' W 122°19'0 0.0
2017-Aug-16 16:00N 37°36' W 122°19'0 0.0
2017-Aug-16 11:13N 37°35' W 122°19'0 0.7
2017-Aug-16 11:00N 37°36' W 122°19'0 0.0
2017-Aug-16 10:30N 37°36' W 122°19'2 4.3
2017-Aug-16 10:00N 37°38' W 122°19'3 5.7
2017-Aug-16 09:30N 37°40' W 122°20'3 5.9
2017-Aug-16 09:00N 37°43' W 122°21'3 5.9
2017-Aug-16 08:30N 37°46' W 122°22'3 5.3
2017-Aug-16 08:00N 37°48' W 122°24'1 2.0
2017-Aug-16 07:30N 37°49' W 122°25'3 6.7
2017-Aug-16 07:01N 37°46' W 122°22'3 6.6
2017-Aug-16 06:30N 37°43' W 122°21'3 6.6
2017-Aug-16 06:00N 37°40' W 122°20'3 6.4
2017-Aug-16 05:30N 37°37' W 122°18'2 3.3
2017-Aug-16 05:00N 37°36' W 122°19'0 0.0
2017-Aug-16 04:30N 37°36' W 122°19'0 0.0
2017-Aug-16 04:00N 37°36' W 122°19'0 0.0
2017-Aug-16 03:30N 37°36' W 122°19'0 0.1
2017-Aug-16 03:00N 37°36' W 122°19'0 0.0
2017-Aug-15 21:05N 37°35' W 122°19'0 0.1
2017-Aug-15 21:00N 37°35' W 122°19'0 0.5
2017-Aug-15 20:30N 37°36' W 122°19'2 4.1
2017-Aug-15 20:00N 37°38' W 122°18'3 6.0
2017-Aug-15 19:30N 37°40' W 122°20'3 5.7
2017-Aug-15 19:00N 37°43' W 122°21'3 5.8
2017-Aug-15 18:30N 37°46' W 122°22'3 5.4
2017-Aug-15 18:00N 37°48' W 122°24'2 3.6
2017-Aug-15 17:30N 37°49' W 122°25'1 1.9
2017-Aug-15 17:00N 37°49' W 122°24'3 6.4
2017-Aug-15 16:30N 37°46' W 122°22'3 6.3
2017-Aug-15 16:00N 37°43' W 122°21'3 5.6
2017-Aug-15 15:30N 37°40' W 122°20'3 5.3
2017-Aug-15 15:00N 37°38' W 122°19'2 4.2
2017-Aug-15 14:30N 37°36' W 122°18'1 1.3
2017-Aug-15 14:00N 37°35' W 122°19'0 0.0
2017-Aug-15 08:08N 37°35' W 122°19'0 0.0
2017-Aug-15 08:00N 37°35' W 122°19'2 3.0
2017-Aug-15 07:30N 37°37' W 122°19'2 4.8
2017-Aug-15 07:00N 37°39' W 122°20'2 5.0
2017-Aug-15 06:30N 37°42' W 122°21'3 5.1
2017-Aug-15 06:00N 37°44' W 122°21'2 4.8
2017-Aug-15 05:30N 37°46' W 122°22'2 4.5
2017-Aug-15 05:00N 37°48' W 122°24'1 2.7
2017-Aug-15 04:30N 37°49' W 122°25'3 6.5
2017-Aug-15 04:00N 37°47' W 122°22'4 7.1
2017-Aug-15 03:30N 37°43' W 122°21'3 6.4
2017-Aug-15 03:00N 37°40' W 122°20'3 5.8
2017-Aug-15 02:30N 37°38' W 122°19'2 0.4
2017-Aug-14 21:09N 37°35' W 122°19'0 0.4
2017-Aug-14 21:01N 37°36' W 122°19'2 4.7
2017-Aug-14 20:30N 37°38' W 122°19'3 7.0
2017-Aug-14 20:01N 37°41' W 122°20'4 7.2
2017-Aug-14 19:30N 37°45' W 122°21'4 7.1
2017-Aug-14 19:00N 37°48' W 122°23'2 4.6
2017-Aug-14 18:30N 37°49' W 122°25'2 4.4
2017-Aug-14 18:00N 37°48' W 122°23'3 6.0
2017-Aug-14 17:30N 37°45' W 122°22'3 6.1
2017-Aug-14 17:00N 37°42' W 122°21'3 6.1
2017-Aug-14 16:30N 37°39' W 122°20'3 6.0
2017-Aug-14 16:00N 37°37' W 122°18'1 0.0
2017-Aug-12 22:33N 37°35' W 122°19'0 0.1
2017-Aug-12 22:30N 37°35' W 122°19'0 0.3
2017-Aug-12 22:00N 37°35' W 122°19'2 4.1
2017-Aug-12 21:30N 37°37' W 122°18'4 7.4
2017-Aug-12 21:00N 37°41' W 122°20'4 7.9
2017-Aug-12 20:30N 37°45' W 122°21'4 8.2
2017-Aug-12 20:00N 37°48' W 122°24'2 3.5
2017-Aug-12 19:30N 37°49' W 122°25'1 2.8
2017-Aug-12 19:00N 37°49' W 122°24'2 3.9
2017-Aug-12 18:30N 37°47' W 122°23'2 4.2
2017-Aug-12 18:00N 37°45' W 122°22'2 4.8
2017-Aug-12 17:30N 37°43' W 122°21'3 5.4
2017-Aug-12 17:00N 37°40' W 122°20'3 6.1
2017-Aug-12 16:30N 37°37' W 122°18'2 3.3
2017-Aug-12 16:00N 37°36' W 122°19'0 0.5
2017-Aug-12 15:31N 37°35' W 122°19'0 0.1
2017-Aug-12 15:00N 37°35' W 122°19'0 0.0
2017-Aug-12 00:10N 37°35' W 122°19'0 0.0
2017-Aug-12 00:01N 37°35' W 122°19'0 0.4
2017-Aug-11 23:31N 37°36' W 122°19'3 5.3
2017-Aug-11 23:00N 37°38' W 122°19'3 6.4
2017-Aug-11 22:30N 37°41' W 122°20'4 7.0
2017-Aug-11 22:00N 37°45' W 122°21'4 7.5
2017-Aug-11 21:30N 37°48' W 122°23'2 3.5
2017-Aug-11 21:01N 37°49' W 122°25'2 4.3
2017-Aug-11 20:30N 37°48' W 122°23'2 3.8
2017-Aug-11 20:00N 37°46' W 122°22'2 4.0
2017-Aug-11 19:31N 37°44' W 122°22'2 3.9
2017-Aug-11 19:00N 37°42' W 122°21'2 4.1
2017-Aug-11 18:30N 37°40' W 122°20'2 4.4
2017-Aug-11 18:01N 37°38' W 122°19'2 3.8
2017-Aug-11 17:31N 37°36' W 122°19'1 1.1
2017-Aug-11 17:01N 37°36' W 122°19'0 0.6
2017-Aug-11 16:31N 37°35' W 122°19'0 0.1
2017-Aug-11 15:58N 37°35' W 122°19'0 0.0
2017-Aug-11 15:30N 37°35' W 122°19'0 0.1
2017-Aug-11 15:00N 37°35' W 122°19'0 0.2
2017-Aug-11 14:31N 37°35' W 122°19'0 0.0
2017-Aug-11 06:00N 37°35' W 122°19'0 0.2
2017-Aug-11 05:31N 37°35' W 122°19'3 5.5
2017-Aug-11 05:01N 37°38' W 122°20'3 6.5
2017-Aug-11 04:31N 37°41' W 122°21'3 6.3
2017-Aug-11 04:00N 37°44' W 122°22'3 6.2
2017-Aug-11 03:30N 37°47' W 122°23'3 5.6
2017-Aug-11 03:00N 37°49' W 122°25'2 4.8
2017-Aug-11 02:30N 37°48' W 122°23'3 6.8
2017-Aug-11 02:01N 37°45' W 122°21'3 6.5
2017-Aug-11 01:30N 37°42' W 122°20'3 5.9
2017-Aug-11 01:00N 37°39' W 122°19'3 5.1
2017-Aug-11 00:30N 37°36' W 122°19'1 0.2
2017-Aug-10 20:27N 37°35' W 122°19'0 0.2
2017-Aug-10 20:01N 37°35' W 122°19'0 0.1
2017-Aug-10 19:31N 37°35' W 122°19'0 0.0
2017-Aug-10 14:21N 37°35' W 122°19'0 0.0
2017-Aug-10 14:00N 37°35' W 122°19'0 0.2
2017-Aug-10 13:30N 37°35' W 122°19'0 0.0
2017-Aug-10 12:14N 37°35' W 122°19'0 0.2
2017-Aug-10 12:00N 37°35' W 122°19'2 3.1
2017-Aug-10 11:31N 37°37' W 122°19'3 5.6
2017-Aug-10 11:00N 37°40' W 122°20'3 5.6
2017-Aug-10 10:30N 37°42' W 122°21'3 5.7
2017-Aug-10 10:01N 37°45' W 122°22'3 6.1
2017-Aug-10 09:30N 37°48' W 122°23'2 4.1
2017-Aug-10 09:00N 37°49' W 122°25'3 5.3
2017-Aug-10 08:31N 37°47' W 122°23'2 4.6
2017-Aug-10 08:00N 37°45' W 122°22'2 4.6
2017-Aug-10 07:31N 37°43' W 122°21'2 4.5
2017-Aug-10 07:00N 37°41' W 122°20'2 4.0
2017-Aug-10 06:30N 37°39' W 122°19'2 4.3
2017-Aug-10 06:01N 37°37' W 122°18'2 3.6
2017-Aug-10 05:30N 37°35' W 122°19'0 0.0
2017-Aug-10 05:01N 37°35' W 122°19'0 0.0
2017-Aug-10 04:31N 37°35' W 122°19'0 0.0
2017-Aug-10 04:00N 37°35' W 122°19'0 0.0
2017-Aug-10 03:30N 37°35' W 122°19'0 0.0
2017-Aug-10 03:00N 37°35' W 122°19'0 0.0
2017-Aug-10 02:30N 37°35' W 122°19'0 0.1
2017-Aug-10 02:00N 37°35' W 122°19'0 0.1
2017-Aug-10 01:30N 37°35' W 122°19'0 0.6
2017-Aug-10 01:00N 37°36' W 122°19'2 4.9
2017-Aug-10 00:30N 37°38' W 122°19'3 5.2
2017-Aug-10 00:00N 37°41' W 122°20'3 5.2
2017-Aug-09 23:30N 37°43' W 122°21'3 5.1
2017-Aug-09 23:00N 37°45' W 122°22'2 5.0
2017-Aug-09 22:30N 37°48' W 122°23'2 4.6
2017-Aug-09 22:00N 37°49' W 122°25'1 2.1
2017-Aug-09 21:30N 37°49' W 122°24'3 5.2
2017-Aug-09 21:00N 37°47' W 122°23'2 4.8
2017-Aug-09 20:30N 37°44' W 122°22'2 4.4
2017-Aug-09 20:00N 37°42' W 122°21'2 3.9
2017-Aug-09 19:30N 37°40' W 122°20'2 4.1
2017-Aug-09 19:00N 37°38' W 122°19'2 3.6
2017-Aug-09 18:30N 37°37' W 122°18'1 0.1
2017-Aug-09 08:07N 37°35' W 122°19'0 0.2
2017-Aug-09 08:01N 37°35' W 122°19'2 4.9
2017-Aug-09 07:30N 37°38' W 122°19'3 6.8
2017-Aug-09 07:01N 37°41' W 122°20'4 7.2
2017-Aug-09 06:31N 37°45' W 122°22'4 7.9
2017-Aug-09 06:00N 37°48' W 122°24'1 2.7
2017-Aug-09 05:30N 37°49' W 122°25'2 3.3
2017-Aug-09 05:00N 37°48' W 122°23'2 3.8
2017-Aug-09 04:30N 37°46' W 122°22'2 4.1
2017-Aug-09 04:00N 37°44' W 122°21'2 4.5
2017-Aug-09 03:31N 37°42' W 122°21'2 4.9
2017-Aug-09 03:01N 37°40' W 122°20'3 5.3
2017-Aug-09 02:31N 37°37' W 122°19'2 0.2
2017-Aug-08 18:01N 37°35' W 122°19'0 0.0
2017-Aug-08 18:01N 37°35' W 122°19'0 0.2
2017-Aug-08 17:31N 37°35' W 122°19'0 0.1
2017-Aug-08 17:01N 37°35' W 122°19'0 0.0
2017-Aug-08 16:30N 37°35' W 122°19'0 0.0
2017-Aug-08 16:00N 37°35' W 122°19'0 0.0
2017-Aug-08 15:30N 37°35' W 122°19'0 0.0
2017-Aug-08 15:01N 37°35' W 122°19'0 0.0
2017-Aug-08 14:31N 37°35' W 122°19'0 0.0
2017-Aug-08 14:01N 37°35' W 122°19'1 2.0
2017-Aug-08 13:30N 37°37' W 122°19'2 4.7
2017-Aug-08 13:01N 37°39' W 122°20'2 4.9
2017-Aug-08 12:31N 37°41' W 122°21'2 4.7
2017-Aug-08 12:00N 37°43' W 122°21'2 4.5
2017-Aug-08 11:30N 37°46' W 122°22'2 4.2
2017-Aug-08 11:01N 37°47' W 122°23'2 4.0
2017-Aug-08 10:30N 37°49' W 122°25'0 0.5
2017-Aug-08 10:00N 37°49' W 122°25'4 7.6
2017-Aug-08 09:30N 37°46' W 122°22'3 6.7
2017-Aug-08 09:01N 37°43' W 122°21'3 5.8
2017-Aug-08 08:31N 37°40' W 122°20'3 5.2
2017-Aug-08 08:01N 37°38' W 122°19'2 4.2
2017-Aug-08 07:31N 37°36' W 122°19'0 0.6
2017-Aug-08 07:01N 37°35' W 122°19'0 0.0
2017-Aug-08 03:28N 37°35' W 122°19'0 0.0
2017-Aug-08 03:01N 37°35' W 122°19'0 0.0
2017-Aug-08 02:30N 37°35' W 122°19'0 0.0
2017-Aug-08 01:03N 37°35' W 122°19'0 0.0
2017-Aug-08 00:54N 37°35' W 122°19'0 0.0
2017-Aug-08 00:30N 37°35' W 122°19'0 0.0
2017-Aug-08 00:00N 37°35' W 122°19'0 0.0
2017-Aug-07 23:30N 37°35' W 122°19'0 0.0
2017-Aug-07 23:00N 37°35' W 122°19'0 0.0
2017-Aug-07 22:30N 37°35' W 122°19'0 0.0
2017-Aug-07 22:00N 37°35' W 122°19'0 0.3
2017-Aug-07 21:31N 37°35' W 122°19'1 1.3
2017-Aug-07 21:01N 37°36' W 122°18'3 6.4
2017-Aug-07 20:30N 37°39' W 122°19'3 6.9
2017-Aug-07 20:00N 37°42' W 122°21'4 7.5
2017-Aug-07 19:30N 37°46' W 122°22'4 7.3
2017-Aug-07 19:00N 37°49' W 122°25'0 0.5
2017-Aug-07 18:30N 37°49' W 122°25'2 3.8
2017-Aug-07 18:01N 37°48' W 122°23'2 3.4
2017-Aug-07 17:30N 37°46' W 122°22'2 3.8
2017-Aug-07 17:00N 37°44' W 122°22'2 3.9
2017-Aug-07 16:30N 37°43' W 122°21'2 3.9
2017-Aug-07 16:00N 37°41' W 122°20'2 4.3
2017-Aug-07 15:30N 37°39' W 122°19'2 4.6
2017-Aug-07 15:00N 37°37' W 122°18'1 2.5
2017-Aug-07 14:30N 37°36' W 122°19'0 0.3
2017-Aug-07 14:00N 37°35' W 122°19'0 0.0
2017-Aug-07 13:30N 37°35' W 122°19'  

Dump ship's entire track history